Peoria, IL (61603)

11:14 PM CDT op 01 augustus 2015 (GMT -0500)
Ricks Place | | Change Station
CLOSE
Current Station
Persoonlijk weerstation
Location: Peoria Heights, IL
Geometrische hoogte: 775 ft
Nabije weerstations

Hoogte 775 ft 40.74 °N, 89.58 °W | Updated 6 seconds ago

Gedeeltelijk bewolkt
Gedeeltelijk bewolkt
75.6 °F
Voelt als 77 °F
N
0.0
Wind Variabel Wind van ZZW
Gusts 3.0 mijl/u

Vandaag
Hoog -- | Laag -- °F
--% Kans op neerslag
Gisteren
Hoog -- | Laag -- °F
Precip. -- inches
5:54 AM 8:13 PM
Afnemende maan, 96% visible
Druk 29.93 inches
Zicht 10.0 mijlen
Wolken Helder
Warmteindex 77 °F
Dauwpunt 68 °F
Vochtigheid 77%
Neerslag inches
Dikte sneeuw Niet beschikbaar.
UV 0 van de 12
Pollen 6.50 van de 12
Luchtkwaliteit Niet beschikbaar.
Flu Activity Niet beschikbaar.
METAR KPIA 020354Z 22004KT 10SM CLR 23/18 A2995 RMK AO2 SLP135 T02330183

More Conditions Fewer Conditions

Druk 29.93 inches
Zicht 10.0 mijlen
Wolken Helder
Warmteindex 77 °F
Dauwpunt 68 °F
Vochtigheid 77%
Neerslag inches
Dikte sneeuw Niet beschikbaar.
UV 0 van de 12
Pollen 6.50 van de 12
Luchtkwaliteit Niet beschikbaar.
Flu Activity Niet beschikbaar.
METAR KPIA 020354Z 22004KT 10SM CLR 23/18 A2995 RMK AO2 SLP135 T02330183

More Conditions Fewer Conditions

10-Day Weather Forecast

×

Almanac

Astronomie

Aug. 01, 2015 Opkomst Ondergang
Werkelijke tijd
Burgerlijke schemering
Nautische schemering
Astronomische schemering
Maan
Golflengte van het zichtbare licht
Daglengte
Tomorrow will be .
, % of the Moon is Illuminated

Extremen vandaag

State Highs State Lows

Community

WunderPhotos

Upload Photos

1,843,182 foto’s ge-upload!

WunderBlogs® & News

Nearby

Luchtkwaliteit

  Luchtkwaliteit LK-index Verontreinigende stof
Not available.

Dikte sneeuw

Station Depth Geometrische hoogte

Aardbevingen

Stad Distance Mag. Time & Date
Minimum magnitude displayed is 2.5.

Watertemperatuur langs de kust

Plaats Temperatuur

Stations

Nabije weerstations

Locatie station Temp. Gevoelstemperatuur Dauwpunt Vochtigheid Wind Precip. Hoogte Geactualiseerd Type